sensor_id;sensor_type;location;lat;lon;timestamp;P1;durP1;ratioP1;P2;durP2;ratioP2
37529;SDS011;23374;52.758;6.872;2022-11-15T00:01:26;15.60;;;9.20;;
37529;SDS011;23374;52.758;6.872;2022-11-15T00:03:50;16.90;;;9.20;;
37529;SDS011;23374;52.758;6.872;2022-11-15T00:06:11;16.17;;;8.83;;
37529;SDS011;23374;52.758;6.872;2022-11-15T00:08:32;17.20;;;9.50;;
37529;SDS011;23374;52.758;6.872;2022-11-15T00:10:59;18.33;;;8.37;;
37529;SDS011;23374;52.758;6.872;2022-11-15T00:13:21;16.00;;;8.47;;
37529;SDS011;23374;52.758;6.872;2022-11-15T00:15:41;19.50;;;8.87;;
37529;SDS011;23374;52.758;6.872;2022-11-15T00:18:02;15.10;;;8.10;;
37529;SDS011;23374;52.758;6.872;2022-11-15T00:20:23;15.53;;;8.87;;
37529;SDS011;23374;52.758;6.872;2022-11-15T00:22:43;17.27;;;9.57;;
37529;SDS011;23374;52.758;6.872;2022-11-15T00:25:04;16.47;;;8.83;;
37529;SDS011;23374;52.758;6.872;2022-11-15T00:27:25;18.83;;;9.67;;
37529;SDS011;23374;52.758;6.872;2022-11-15T00:29:47;15.97;;;9.10;;
37529;SDS011;23374;52.758;6.872;2022-11-15T00:32:07;17.30;;;9.10;;
37529;SDS011;23374;52.758;6.872;2022-11-15T00:34:27;16.50;;;9.20;;
37529;SDS011;23374;52.758;6.872;2022-11-15T00:36:47;15.17;;;8.57;;
37529;SDS011;23374;52.758;6.872;2022-11-15T00:39:07;14.87;;;8.60;;
37529;SDS011;23374;52.758;6.872;2022-11-15T00:41:28;18.50;;;8.80;;
37529;SDS011;23374;52.758;6.872;2022-11-15T00:43:48;18.30;;;8.97;;
37529;SDS011;23374;52.758;6.872;2022-11-15T00:46:09;19.27;;;7.70;;
37529;SDS011;23374;52.758;6.872;2022-11-15T00:48:29;17.73;;;9.47;;
37529;SDS011;23374;52.758;6.872;2022-11-15T00:50:51;19.83;;;9.30;;
37529;SDS011;23374;52.758;6.872;2022-11-15T00:53:11;16.57;;;8.73;;
37529;SDS011;23374;52.758;6.872;2022-11-15T00:55:31;18.77;;;8.83;;
37529;SDS011;23374;52.758;6.872;2022-11-15T00:57:52;18.07;;;8.73;;
37529;SDS011;23374;52.758;6.872;2022-11-15T01:00:12;18.60;;;8.67;;
37529;SDS011;23374;52.758;6.872;2022-11-15T01:02:33;18.67;;;9.40;;
37529;SDS011;23374;52.758;6.872;2022-11-15T01:04:54;18.23;;;8.47;;
37529;SDS011;23374;52.758;6.872;2022-11-15T01:07:15;17.50;;;8.63;;
37529;SDS011;23374;52.758;6.872;2022-11-15T01:09:35;17.10;;;8.30;;
37529;SDS011;23374;52.758;6.872;2022-11-15T01:11:55;17.10;;;8.80;;
37529;SDS011;23374;52.758;6.872;2022-11-15T01:14:15;17.63;;;8.90;;
37529;SDS011;23374;52.758;6.872;2022-11-15T01:16:35;19.60;;;8.33;;
37529;SDS011;23374;52.758;6.872;2022-11-15T01:18:55;16.67;;;8.67;;
37529;SDS011;23374;52.758;6.872;2022-11-15T01:21:17;20.57;;;8.93;;
37529;SDS011;23374;52.758;6.872;2022-11-15T01:23:39;19.53;;;9.03;;
37529;SDS011;23374;52.758;6.872;2022-11-15T01:26:00;15.17;;;8.00;;
37529;SDS011;23374;52.758;6.872;2022-11-15T01:28:22;17.00;;;9.30;;
37529;SDS011;23374;52.758;6.872;2022-11-15T01:30:42;17.50;;;9.17;;
37529;SDS011;23374;52.758;6.872;2022-11-15T01:33:02;19.40;;;9.37;;
37529;SDS011;23374;52.758;6.872;2022-11-15T01:35:22;16.27;;;8.17;;
37529;SDS011;23374;52.758;6.872;2022-11-15T01:37:43;18.63;;;9.33;;
37529;SDS011;23374;52.758;6.872;2022-11-15T01:40:03;13.83;;;7.83;;
37529;SDS011;23374;52.758;6.872;2022-11-15T01:42:24;21.20;;;9.90;;
37529;SDS011;23374;52.758;6.872;2022-11-15T01:44:49;18.90;;;9.37;;
37529;SDS011;23374;52.758;6.872;2022-11-15T01:47:40;15.70;;;8.67;;
37529;SDS011;23374;52.758;6.872;2022-11-15T01:50:10;18.03;;;8.97;;
37529;SDS011;23374;52.758;6.872;2022-11-15T01:52:34;16.03;;;8.93;;
37529;SDS011;23374;52.758;6.872;2022-11-15T01:55:02;16.47;;;8.23;;
37529;SDS011;23374;52.758;6.872;2022-11-15T01:57:38;17.03;;;8.43;;
37529;SDS011;23374;52.758;6.872;2022-11-15T02:00:00;14.83;;;8.03;;
37529;SDS011;23374;52.758;6.872;2022-11-15T02:02:22;15.87;;;7.93;;
37529;SDS011;23374;52.758;6.872;2022-11-15T02:04:45;17.67;;;9.00;;
37529;SDS011;23374;52.758;6.872;2022-11-15T02:07:06;18.87;;;8.80;;
37529;SDS011;23374;52.758;6.872;2022-11-15T02:09:30;18.47;;;9.03;;
37529;SDS011;23374;52.758;6.872;2022-11-15T02:11:50;15.07;;;8.40;;
37529;SDS011;23374;52.758;6.872;2022-11-15T02:14:14;22.10;;;9.93;;
37529;SDS011;23374;52.758;6.872;2022-11-15T02:19:49;18.53;;;9.10;;
37529;SDS011;23374;52.758;6.872;2022-11-15T02:25:17;19.50;;;7.50;;
37529;SDS011;23374;52.758;6.872;2022-11-15T02:38:52;18.10;;;8.23;;
37529;SDS011;23374;52.758;6.872;2022-11-15T02:41:30;18.57;;;8.87;;
37529;SDS011;23374;52.758;6.872;2022-11-15T02:44:01;19.13;;;9.20;;
37529;SDS011;23374;52.758;6.872;2022-11-15T02:46:45;18.67;;;8.23;;
37529;SDS011;23374;52.758;6.872;2022-11-15T02:49:32;18.33;;;8.67;;
37529;SDS011;23374;52.758;6.872;2022-11-15T02:51:54;20.80;;;9.57;;
37529;SDS011;23374;52.758;6.872;2022-11-15T02:54:19;20.63;;;8.90;;
37529;SDS011;23374;52.758;6.872;2022-11-15T02:56:43;19.43;;;9.37;;
37529;SDS011;23374;52.758;6.872;2022-11-15T03:07:11;21.43;;;8.27;;
37529;SDS011;23374;52.758;6.872;2022-11-15T03:09:51;17.87;;;8.60;;
37529;SDS011;23374;52.758;6.872;2022-11-15T03:12:32;22.00;;;9.00;;
37529;SDS011;23374;52.758;6.872;2022-11-15T03:15:16;20.43;;;9.33;;
37529;SDS011;23374;52.758;6.872;2022-11-15T03:17:54;21.67;;;9.20;;
37529;SDS011;23374;52.758;6.872;2022-11-15T03:20:20;24.83;;;10.13;;
37529;SDS011;23374;52.758;6.872;2022-11-15T03:22:42;21.57;;;9.30;;
37529;SDS011;23374;52.758;6.872;2022-11-15T03:25:07;22.20;;;9.60;;
37529;SDS011;23374;52.758;6.872;2022-11-15T03:27:33;19.80;;;9.90;;
37529;SDS011;23374;52.758;6.872;2022-11-15T03:30:00;19.10;;;9.53;;
37529;SDS011;23374;52.758;6.872;2022-11-15T03:32:25;19.97;;;9.90;;
37529;SDS011;23374;52.758;6.872;2022-11-15T03:34:52;19.93;;;9.80;;
37529;SDS011;23374;52.758;6.872;2022-11-15T03:37:16;21.60;;;10.03;;
37529;SDS011;23374;52.758;6.872;2022-11-15T03:39:40;19.10;;;9.77;;
37529;SDS011;23374;52.758;6.872;2022-11-15T03:48:52;20.87;;;9.67;;
37529;SDS011;23374;52.758;6.872;2022-11-15T03:51:23;17.80;;;9.13;;
37529;SDS011;23374;52.758;6.872;2022-11-15T03:53:43;19.77;;;10.30;;
37529;SDS011;23374;52.758;6.872;2022-11-15T03:56:05;24.57;;;10.83;;
37529;SDS011;23374;52.758;6.872;2022-11-15T03:58:26;29.10;;;11.47;;
37529;SDS011;23374;52.758;6.872;2022-11-15T04:00:46;26.43;;;11.03;;
37529;SDS011;23374;52.758;6.872;2022-11-15T04:03:06;24.83;;;10.60;;
37529;SDS011;23374;52.758;6.872;2022-11-15T04:05:27;26.00;;;11.27;;
37529;SDS011;23374;52.758;6.872;2022-11-15T04:07:47;26.47;;;11.10;;
37529;SDS011;23374;52.758;6.872;2022-11-15T04:10:09;24.07;;;10.37;;
37529;SDS011;23374;52.758;6.872;2022-11-15T04:12:35;24.23;;;11.37;;
37529;SDS011;23374;52.758;6.872;2022-11-15T04:15:03;24.60;;;11.50;;
37529;SDS011;23374;52.758;6.872;2022-11-15T04:17:29;24.30;;;11.83;;
37529;SDS011;23374;52.758;6.872;2022-11-15T04:19:49;27.37;;;12.60;;
37529;SDS011;23374;52.758;6.872;2022-11-15T04:22:28;26.77;;;12.83;;
37529;SDS011;23374;52.758;6.872;2022-11-15T04:25:07;25.13;;;12.43;;
37529;SDS011;23374;52.758;6.872;2022-11-15T04:27:27;30.13;;;12.73;;
37529;SDS011;23374;52.758;6.872;2022-11-15T04:29:47;29.67;;;12.40;;
37529;SDS011;23374;52.758;6.872;2022-11-15T04:32:07;25.80;;;12.63;;
37529;SDS011;23374;52.758;6.872;2022-11-15T04:34:28;18.83;;;10.67;;
37529;SDS011;23374;52.758;6.872;2022-11-15T04:36:48;36.03;;;12.97;;
37529;SDS011;23374;52.758;6.872;2022-11-15T04:39:27;23.83;;;11.23;;
37529;SDS011;23374;52.758;6.872;2022-11-15T04:41:47;26.67;;;12.50;;
37529;SDS011;23374;52.758;6.872;2022-11-15T04:44:08;26.97;;;12.40;;
37529;SDS011;23374;52.758;6.872;2022-11-15T04:46:29;30.20;;;12.93;;
37529;SDS011;23374;52.758;6.872;2022-11-15T04:48:50;26.90;;;12.33;;
37529;SDS011;23374;52.758;6.872;2022-11-15T04:51:11;26.57;;;12.20;;
37529;SDS011;23374;52.758;6.872;2022-11-15T04:53:31;21.07;;;11.97;;
37529;SDS011;23374;52.758;6.872;2022-11-15T04:55:51;29.40;;;12.97;;
37529;SDS011;23374;52.758;6.872;2022-11-15T04:58:11;27.77;;;12.00;;
37529;SDS011;23374;52.758;6.872;2022-11-15T05:00:32;25.13;;;11.33;;
37529;SDS011;23374;52.758;6.872;2022-11-15T05:02:52;29.77;;;12.00;;
37529;SDS011;23374;52.758;6.872;2022-11-15T05:05:31;32.30;;;12.20;;
37529;SDS011;23374;52.758;6.872;2022-11-15T05:07:51;27.73;;;12.03;;
37529;SDS011;23374;52.758;6.872;2022-11-15T05:10:11;31.10;;;13.00;;
37529;SDS011;23374;52.758;6.872;2022-11-15T05:12:31;23.30;;;11.87;;
37529;SDS011;23374;52.758;6.872;2022-11-15T05:14:52;23.40;;;11.27;;
37529;SDS011;23374;52.758;6.872;2022-11-15T05:17:12;24.53;;;12.40;;
37529;SDS011;23374;52.758;6.872;2022-11-15T05:19:32;25.23;;;11.57;;
37529;SDS011;23374;52.758;6.872;2022-11-15T05:21:52;25.60;;;11.90;;
37529;SDS011;23374;52.758;6.872;2022-11-15T05:24:12;25.90;;;12.43;;
37529;SDS011;23374;52.758;6.872;2022-11-15T05:26:33;23.43;;;12.20;;
37529;SDS011;23374;52.758;6.872;2022-11-15T05:28:54;25.80;;;12.40;;
37529;SDS011;23374;52.758;6.872;2022-11-15T05:31:16;24.80;;;11.93;;
37529;SDS011;23374;52.758;6.872;2022-11-15T05:33:37;32.50;;;11.97;;
37529;SDS011;23374;52.758;6.872;2022-11-15T05:36:10;25.30;;;11.77;;
37529;SDS011;23374;52.758;6.872;2022-11-15T05:38:37;23.70;;;12.43;;
37529;SDS011;23374;52.758;6.872;2022-11-15T05:40:59;22.83;;;11.80;;
37529;SDS011;23374;52.758;6.872;2022-11-15T05:43:21;25.80;;;11.40;;
37529;SDS011;23374;52.758;6.872;2022-11-15T05:45:43;24.70;;;12.10;;
37529;SDS011;23374;52.758;6.872;2022-11-15T05:48:05;22.90;;;10.53;;
37529;SDS011;23374;52.758;6.872;2022-11-15T05:50:28;26.53;;;11.20;;
37529;SDS011;23374;52.758;6.872;2022-11-15T05:52:49;23.67;;;10.97;;
37529;SDS011;23374;52.758;6.872;2022-11-15T05:55:09;21.77;;;10.40;;
37529;SDS011;23374;52.758;6.872;2022-11-15T05:57:30;23.90;;;10.30;;
37529;SDS011;23374;52.758;6.872;2022-11-15T05:59:50;21.67;;;11.10;;
37529;SDS011;23374;52.758;6.872;2022-11-15T06:02:11;20.03;;;10.27;;
37529;SDS011;23374;52.758;6.872;2022-11-15T06:04:31;22.73;;;10.70;;
37529;SDS011;23374;52.758;6.872;2022-11-15T06:06:51;27.17;;;12.10;;
37529;SDS011;23374;52.758;6.872;2022-11-15T06:09:12;23.33;;;11.57;;
37529;SDS011;23374;52.758;6.872;2022-11-15T06:11:32;21.60;;;11.03;;
37529;SDS011;23374;52.758;6.872;2022-11-15T06:13:52;23.50;;;11.30;;
37529;SDS011;23374;52.758;6.872;2022-11-15T06:16:13;26.37;;;11.33;;
37529;SDS011;23374;52.758;6.872;2022-11-15T06:18:33;23.23;;;11.20;;
37529;SDS011;23374;52.758;6.872;2022-11-15T06:20:58;19.77;;;10.70;;
37529;SDS011;23374;52.758;6.872;2022-11-15T06:23:19;22.53;;;11.03;;
37529;SDS011;23374;52.758;6.872;2022-11-15T06:25:39;21.37;;;10.97;;
37529;SDS011;23374;52.758;6.872;2022-11-15T06:27:59;21.53;;;11.57;;
37529;SDS011;23374;52.758;6.872;2022-11-15T06:30:20;21.33;;;11.37;;
37529;SDS011;23374;52.758;6.872;2022-11-15T06:32:41;24.80;;;11.57;;
37529;SDS011;23374;52.758;6.872;2022-11-15T06:35:01;25.70;;;11.33;;
37529;SDS011;23374;52.758;6.872;2022-11-15T06:37:21;21.27;;;11.17;;
37529;SDS011;23374;52.758;6.872;2022-11-15T06:39:42;24.27;;;11.43;;
37529;SDS011;23374;52.758;6.872;2022-11-15T06:42:02;22.00;;;10.67;;
37529;SDS011;23374;52.758;6.872;2022-11-15T06:44:22;21.13;;;12.27;;
37529;SDS011;23374;52.758;6.872;2022-11-15T06:46:42;20.73;;;12.07;;
37529;SDS011;23374;52.758;6.872;2022-11-15T06:49:03;19.30;;;11.37;;
37529;SDS011;23374;52.758;6.872;2022-11-15T06:51:23;23.77;;;11.57;;
37529;SDS011;23374;52.758;6.872;2022-11-15T06:53:43;21.30;;;10.53;;
37529;SDS011;23374;52.758;6.872;2022-11-15T06:56:05;20.77;;;11.07;;
37529;SDS011;23374;52.758;6.872;2022-11-15T06:58:26;21.30;;;11.17;;
37529;SDS011;23374;52.758;6.872;2022-11-15T07:00:47;21.07;;;10.70;;
37529;SDS011;23374;52.758;6.872;2022-11-15T07:03:07;20.50;;;10.73;;
37529;SDS011;23374;52.758;6.872;2022-11-15T07:05:28;19.97;;;9.87;;
37529;SDS011;23374;52.758;6.872;2022-11-15T07:07:56;18.63;;;10.27;;
37529;SDS011;23374;52.758;6.872;2022-11-15T07:10:17;21.30;;;10.87;;
37529;SDS011;23374;52.758;6.872;2022-11-15T07:12:38;23.93;;;10.63;;
37529;SDS011;23374;52.758;6.872;2022-11-15T07:14:58;20.87;;;9.97;;
37529;SDS011;23374;52.758;6.872;2022-11-15T07:17:18;20.80;;;10.50;;
37529;SDS011;23374;52.758;6.872;2022-11-15T07:19:38;18.57;;;9.97;;
37529;SDS011;23374;52.758;6.872;2022-11-15T07:21:58;18.00;;;9.33;;
37529;SDS011;23374;52.758;6.872;2022-11-15T07:24:18;19.37;;;10.10;;
37529;SDS011;23374;52.758;6.872;2022-11-15T07:26:38;19.33;;;10.00;;
37529;SDS011;23374;52.758;6.872;2022-11-15T07:28:59;20.70;;;9.60;;
37529;SDS011;23374;52.758;6.872;2022-11-15T07:31:19;17.40;;;9.67;;
37529;SDS011;23374;52.758;6.872;2022-11-15T07:33:39;15.70;;;10.00;;
37529;SDS011;23374;52.758;6.872;2022-11-15T07:36:00;18.47;;;9.63;;
37529;SDS011;23374;52.758;6.872;2022-11-15T07:38:21;15.97;;;9.07;;
37529;SDS011;23374;52.758;6.872;2022-11-15T07:40:42;21.20;;;9.57;;
37529;SDS011;23374;52.758;6.872;2022-11-15T07:43:04;18.47;;;9.77;;
37529;SDS011;23374;52.758;6.872;2022-11-15T07:45:25;18.83;;;9.77;;
37529;SDS011;23374;52.758;6.872;2022-11-15T07:47:46;18.07;;;9.43;;
37529;SDS011;23374;52.758;6.872;2022-11-15T07:50:10;23.13;;;9.93;;
37529;SDS011;23374;52.758;6.872;2022-11-15T07:52:30;18.13;;;10.00;;
37529;SDS011;23374;52.758;6.872;2022-11-15T07:54:50;19.83;;;10.00;;
37529;SDS011;23374;52.758;6.872;2022-11-15T07:57:11;17.20;;;9.47;;
37529;SDS011;23374;52.758;6.872;2022-11-15T07:59:31;16.83;;;9.50;;
37529;SDS011;23374;52.758;6.872;2022-11-15T08:01:52;20.40;;;10.10;;
37529;SDS011;23374;52.758;6.872;2022-11-15T08:04:12;18.83;;;10.17;;
37529;SDS011;23374;52.758;6.872;2022-11-15T08:06:33;21.40;;;10.43;;
37529;SDS011;23374;52.758;6.872;2022-11-15T08:08:53;18.20;;;9.43;;
37529;SDS011;23374;52.758;6.872;2022-11-15T08:11:14;17.83;;;10.60;;
37529;SDS011;23374;52.758;6.872;2022-11-15T08:13:34;17.53;;;9.43;;
37529;SDS011;23374;52.758;6.872;2022-11-15T08:15:59;19.60;;;9.33;;
37529;SDS011;23374;52.758;6.872;2022-11-15T08:18:20;16.83;;;10.67;;
37529;SDS011;23374;52.758;6.872;2022-11-15T08:20:41;21.50;;;10.13;;
37529;SDS011;23374;52.758;6.872;2022-11-15T08:23:03;20.13;;;10.47;;
37529;SDS011;23374;52.758;6.872;2022-11-15T08:25:24;18.50;;;10.60;;
37529;SDS011;23374;52.758;6.872;2022-11-15T08:27:46;19.60;;;10.97;;
37529;SDS011;23374;52.758;6.872;2022-11-15T08:30:07;18.53;;;10.77;;
37529;SDS011;23374;52.758;6.872;2022-11-15T08:32:28;18.73;;;10.93;;
37529;SDS011;23374;52.758;6.872;2022-11-15T08:34:50;20.50;;;10.73;;
37529;SDS011;23374;52.758;6.872;2022-11-15T08:37:11;18.93;;;10.63;;
37529;SDS011;23374;52.758;6.872;2022-11-15T08:39:31;20.80;;;11.53;;
37529;SDS011;23374;52.758;6.872;2022-11-15T08:41:51;20.93;;;10.53;;
37529;SDS011;23374;52.758;6.872;2022-11-15T08:44:11;16.97;;;9.93;;
37529;SDS011;23374;52.758;6.872;2022-11-15T08:46:31;18.23;;;10.80;;
37529;SDS011;23374;52.758;6.872;2022-11-15T08:48:52;18.83;;;11.10;;
37529;SDS011;23374;52.758;6.872;2022-11-15T08:51:12;21.33;;;11.80;;
37529;SDS011;23374;52.758;6.872;2022-11-15T08:53:34;21.90;;;11.17;;
37529;SDS011;23374;52.758;6.872;2022-11-15T08:55:54;20.13;;;10.03;;
37529;SDS011;23374;52.758;6.872;2022-11-15T08:58:14;20.30;;;11.70;;
37529;SDS011;23374;52.758;6.872;2022-11-15T09:00:34;20.00;;;11.27;;
37529;SDS011;23374;52.758;6.872;2022-11-15T09:02:55;21.03;;;11.60;;
37529;SDS011;23374;52.758;6.872;2022-11-15T09:05:15;20.37;;;10.87;;
37529;SDS011;23374;52.758;6.872;2022-11-15T09:07:35;24.57;;;10.97;;
37529;SDS011;23374;52.758;6.872;2022-11-15T09:09:56;17.20;;;10.20;;
37529;SDS011;23374;52.758;6.872;2022-11-15T09:12:16;15.63;;;9.47;;
37529;SDS011;23374;52.758;6.872;2022-11-15T09:14:36;21.97;;;9.77;;
37529;SDS011;23374;52.758;6.872;2022-11-15T09:16:57;19.60;;;10.73;;
37529;SDS011;23374;52.758;6.872;2022-11-15T09:19:18;19.33;;;10.70;;
37529;SDS011;23374;52.758;6.872;2022-11-15T09:21:38;22.23;;;11.33;;
37529;SDS011;23374;52.758;6.872;2022-11-15T09:23:59;19.97;;;11.23;;
37529;SDS011;23374;52.758;6.872;2022-11-15T09:26:19;18.97;;;10.77;;
37529;SDS011;23374;52.758;6.872;2022-11-15T09:28:39;21.03;;;10.60;;
37529;SDS011;23374;52.758;6.872;2022-11-15T09:31:03;21.77;;;11.60;;
37529;SDS011;23374;52.758;6.872;2022-11-15T09:33:25;22.00;;;11.43;;
37529;SDS011;23374;52.758;6.872;2022-11-15T09:35:46;18.37;;;10.63;;
37529;SDS011;23374;52.758;6.872;2022-11-15T09:38:06;20.17;;;10.67;;
37529;SDS011;23374;52.758;6.872;2022-11-15T09:40:27;14.43;;;9.37;;
37529;SDS011;23374;52.758;6.872;2022-11-15T09:46:12;16.10;;;9.70;;
37529;SDS011;23374;52.758;6.872;2022-11-15T09:50:20;12.87;;;8.17;;
37529;SDS011;23374;52.758;6.872;2022-11-15T09:55:20;16.87;;;9.37;;
37529;SDS011;23374;52.758;6.872;2022-11-15T09:58:00;19.60;;;9.63;;
37529;SDS011;23374;52.758;6.872;2022-11-15T10:00:35;16.20;;;9.67;;
37529;SDS011;23374;52.758;6.872;2022-11-15T10:03:20;16.90;;;9.53;;
37529;SDS011;23374;52.758;6.872;2022-11-15T10:05:46;13.37;;;8.37;;
37529;SDS011;23374;52.758;6.872;2022-11-15T10:08:46;14.53;;;8.83;;
37529;SDS011;23374;52.758;6.872;2022-11-15T10:11:31;13.17;;;7.90;;
37529;SDS011;23374;52.758;6.872;2022-11-15T10:13:57;13.37;;;8.57;;
37529;SDS011;23374;52.758;6.872;2022-11-15T10:18:02;13.73;;;7.80;;
37529;SDS011;23374;52.758;6.872;2022-11-15T10:21:51;16.63;;;8.07;;
37529;SDS011;23374;52.758;6.872;2022-11-15T10:25:28;10.83;;;6.90;;
37529;SDS011;23374;52.758;6.872;2022-11-15T10:28:15;16.57;;;8.33;;
37529;SDS011;23374;52.758;6.872;2022-11-15T10:30:43;13.07;;;7.97;;
37529;SDS011;23374;52.758;6.872;2022-11-15T10:37:00;15.70;;;9.17;;
37529;SDS011;23374;52.758;6.872;2022-11-15T10:39:21;13.40;;;7.90;;
37529;SDS011;23374;52.758;6.872;2022-11-15T10:41:43;13.60;;;9.00;;
37529;SDS011;23374;52.758;6.872;2022-11-15T10:44:21;14.97;;;8.77;;
37529;SDS011;23374;52.758;6.872;2022-11-15T10:47:26;15.00;;;8.73;;
37529;SDS011;23374;52.758;6.872;2022-11-15T10:50:06;15.30;;;7.83;;
37529;SDS011;23374;52.758;6.872;2022-11-15T10:52:46;14.93;;;7.47;;
37529;SDS011;23374;52.758;6.872;2022-11-15T10:56:08;11.67;;;6.70;;
37529;SDS011;23374;52.758;6.872;2022-11-15T10:58:42;9.80;;;6.57;;
37529;SDS011;23374;52.758;6.872;2022-11-15T11:01:17;13.37;;;6.23;;
37529;SDS011;23374;52.758;6.872;2022-11-15T11:03:42;11.53;;;6.40;;
37529;SDS011;23374;52.758;6.872;2022-11-15T11:06:17;10.03;;;5.80;;
37529;SDS011;23374;52.758;6.872;2022-11-15T11:08:38;9.17;;;5.47;;
37529;SDS011;23374;52.758;6.872;2022-11-15T11:10:59;7.07;;;4.53;;
37529;SDS011;23374;52.758;6.872;2022-11-15T11:13:24;6.77;;;4.53;;
37529;SDS011;23374;52.758;6.872;2022-11-15T11:15:46;6.63;;;4.30;;
37529;SDS011;23374;52.758;6.872;2022-11-15T11:18:17;6.57;;;4.33;;
37529;SDS011;23374;52.758;6.872;2022-11-15T11:20:59;6.63;;;4.13;;
37529;SDS011;23374;52.758;6.872;2022-11-15T11:23:38;5.40;;;3.47;;
37529;SDS011;23374;52.758;6.872;2022-11-15T11:28:53;6.13;;;3.50;;
37529;SDS011;23374;52.758;6.872;2022-11-15T11:31:45;6.50;;;3.70;;
37529;SDS011;23374;52.758;6.872;2022-11-15T11:34:36;6.07;;;3.40;;
37529;SDS011;23374;52.758;6.872;2022-11-15T11:47:01;3.90;;;2.93;;
37529;SDS011;23374;52.758;6.872;2022-11-15T11:50:19;6.27;;;2.83;;
37529;SDS011;23374;52.758;6.872;2022-11-15T11:52:57;6.07;;;3.00;;
37529;SDS011;23374;52.758;6.872;2022-11-15T11:58:26;4.90;;;2.73;;
37529;SDS011;23374;52.758;6.872;2022-11-15T12:01:10;7.03;;;2.80;;
37529;SDS011;23374;52.758;6.872;2022-11-15T12:04:11;4.17;;;2.70;;
37529;SDS011;23374;52.758;6.872;2022-11-15T12:13:29;5.73;;;2.63;;
37529;SDS011;23374;52.758;6.872;2022-11-15T12:15:59;5.90;;;2.30;;
37529;SDS011;23374;52.758;6.872;2022-11-15T12:18:55;4.70;;;2.20;;
37529;SDS011;23374;52.758;6.872;2022-11-15T12:25:01;5.20;;;2.50;;
37529;SDS011;23374;52.758;6.872;2022-11-15T12:27:56;3.60;;;1.90;;
37529;SDS011;23374;52.758;6.872;2022-11-15T12:30:41;3.43;;;2.13;;
37529;SDS011;23374;52.758;6.872;2022-11-15T12:33:28;4.63;;;2.63;;
37529;SDS011;23374;52.758;6.872;2022-11-15T12:36:05;7.37;;;2.70;;
37529;SDS011;23374;52.758;6.872;2022-11-15T12:39:10;4.27;;;2.00;;
37529;SDS011;23374;52.758;6.872;2022-11-15T12:41:33;3.23;;;2.07;;
37529;SDS011;23374;52.758;6.872;2022-11-15T12:43:58;4.63;;;2.13;;
37529;SDS011;23374;52.758;6.872;2022-11-15T12:51:05;4.77;;;2.30;;
37529;SDS011;23374;52.758;6.872;2022-11-15T12:53:34;4.43;;;2.10;;
37529;SDS011;23374;52.758;6.872;2022-11-15T13:00:39;2.07;;;1.67;;
37529;SDS011;23374;52.758;6.872;2022-11-15T13:04:52;4.83;;;1.50;;
37529;SDS011;23374;52.758;6.872;2022-11-15T13:10:54;4.23;;;1.90;;
37529;SDS011;23374;52.758;6.872;2022-11-15T13:13:42;3.07;;;1.33;;
37529;SDS011;23374;52.758;6.872;2022-11-15T13:16:03;4.00;;;1.60;;
37529;SDS011;23374;52.758;6.872;2022-11-15T13:18:29;2.03;;;1.30;;
37529;SDS011;23374;52.758;6.872;2022-11-15T13:21:20;3.87;;;1.67;;
37529;SDS011;23374;52.758;6.872;2022-11-15T13:24:01;3.70;;;1.87;;
37529;SDS011;23374;52.758;6.872;2022-11-15T13:26:21;1.90;;;1.50;;
37529;SDS011;23374;52.758;6.872;2022-11-15T13:28:46;4.53;;;1.70;;
37529;SDS011;23374;52.758;6.872;2022-11-15T13:34:27;1.40;;;1.20;;
37529;SDS011;23374;52.758;6.872;2022-11-15T13:36:52;2.97;;;1.70;;
37529;SDS011;23374;52.758;6.872;2022-11-15T13:39:34;2.20;;;1.90;;
37529;SDS011;23374;52.758;6.872;2022-11-15T13:41:57;3.77;;;2.30;;
37529;SDS011;23374;52.758;6.872;2022-11-15T13:44:21;2.30;;;2.10;;
37529;SDS011;23374;52.758;6.872;2022-11-15T13:46:43;5.87;;;2.53;;
37529;SDS011;23374;52.758;6.872;2022-11-15T13:49:07;3.40;;;2.30;;
37529;SDS011;23374;52.758;6.872;2022-11-15T13:54:37;4.47;;;2.57;;
37529;SDS011;23374;52.758;6.872;2022-11-15T13:58:51;3.13;;;2.43;;
37529;SDS011;23374;52.758;6.872;2022-11-15T14:01:17;3.20;;;2.60;;
37529;SDS011;23374;52.758;6.872;2022-11-15T14:03:51;4.40;;;2.50;;
37529;SDS011;23374;52.758;6.872;2022-11-15T14:06:16;4.10;;;2.60;;
37529;SDS011;23374;52.758;6.872;2022-11-15T14:08:40;3.50;;;2.43;;
37529;SDS011;23374;52.758;6.872;2022-11-15T14:11:19;5.47;;;2.60;;
37529;SDS011;23374;52.758;6.872;2022-11-15T14:13:39;4.23;;;2.33;;
37529;SDS011;23374;52.758;6.872;2022-11-15T14:16:20;2.80;;;2.50;;
37529;SDS011;23374;52.758;6.872;2022-11-15T14:18:51;2.97;;;2.30;;
37529;SDS011;23374;52.758;6.872;2022-11-15T14:21:12;2.77;;;2.20;;
37529;SDS011;23374;52.758;6.872;2022-11-15T14:23:33;3.13;;;2.80;;
37529;SDS011;23374;52.758;6.872;2022-11-15T14:25:57;5.47;;;2.70;;
37529;SDS011;23374;52.758;6.872;2022-11-15T14:28:37;4.00;;;2.80;;
37529;SDS011;23374;52.758;6.872;2022-11-15T14:31:00;5.13;;;3.03;;
37529;SDS011;23374;52.758;6.872;2022-11-15T14:36:13;4.13;;;2.83;;
37529;SDS011;23374;52.758;6.872;2022-11-15T14:38:38;4.37;;;2.83;;
37529;SDS011;23374;52.758;6.872;2022-11-15T14:40:58;4.50;;;3.17;;
37529;SDS011;23374;52.758;6.872;2022-11-15T14:43:19;7.10;;;3.10;;
37529;SDS011;23374;52.758;6.872;2022-11-15T14:45:39;3.00;;;2.70;;
37529;SDS011;23374;52.758;6.872;2022-11-15T14:48:00;4.37;;;2.87;;
37529;SDS011;23374;52.758;6.872;2022-11-15T14:50:21;3.83;;;3.10;;
37529;SDS011;23374;52.758;6.872;2022-11-15T14:52:41;4.80;;;3.20;;
37529;SDS011;23374;52.758;6.872;2022-11-15T14:55:04;3.67;;;3.13;;
37529;SDS011;23374;52.758;6.872;2022-11-15T14:57:52;8.23;;;2.70;;
37529;SDS011;23374;52.758;6.872;2022-11-15T15:00:13;4.67;;;3.00;;
37529;SDS011;23374;52.758;6.872;2022-11-15T15:02:34;3.07;;;2.60;;
37529;SDS011;23374;52.758;6.872;2022-11-15T15:04:54;3.50;;;2.57;;
37529;SDS011;23374;52.758;6.872;2022-11-15T15:07:15;4.97;;;2.47;;
37529;SDS011;23374;52.758;6.872;2022-11-15T15:09:36;3.33;;;2.50;;
37529;SDS011;23374;52.758;6.872;2022-11-15T15:11:56;5.43;;;2.53;;
37529;SDS011;23374;52.758;6.872;2022-11-15T15:14:16;4.67;;;2.43;;
37529;SDS011;23374;52.758;6.872;2022-11-15T15:16:36;2.93;;;2.07;;
37529;SDS011;23374;52.758;6.872;2022-11-15T15:18:57;2.40;;;1.83;;
37529;SDS011;23374;52.758;6.872;2022-11-15T15:21:22;4.43;;;1.80;;
37529;SDS011;23374;52.758;6.872;2022-11-15T15:23:44;3.93;;;1.90;;
37529;SDS011;23374;52.758;6.872;2022-11-15T15:26:06;3.67;;;1.90;;
37529;SDS011;23374;52.758;6.872;2022-11-15T15:28:28;3.97;;;1.70;;
37529;SDS011;23374;52.758;6.872;2022-11-15T15:30:48;2.13;;;1.70;;
37529;SDS011;23374;52.758;6.872;2022-11-15T15:33:09;3.07;;;1.87;;
37529;SDS011;23374;52.758;6.872;2022-11-15T15:35:32;2.90;;;2.10;;
37529;SDS011;23374;52.758;6.872;2022-11-15T15:37:54;2.80;;;1.83;;
37529;SDS011;23374;52.758;6.872;2022-11-15T15:40:19;5.97;;;1.60;;
37529;SDS011;23374;52.758;6.872;2022-11-15T15:42:41;2.77;;;1.83;;
37529;SDS011;23374;52.758;6.872;2022-11-15T15:45:01;1.67;;;1.40;;
37529;SDS011;23374;52.758;6.872;2022-11-15T15:47:22;1.87;;;1.40;;
37529;SDS011;23374;52.758;6.872;2022-11-15T15:49:43;2.23;;;1.40;;
37529;SDS011;23374;52.758;6.872;2022-11-15T15:52:03;2.13;;;1.23;;
37529;SDS011;23374;52.758;6.872;2022-11-15T15:54:23;2.17;;;1.30;;
37529;SDS011;23374;52.758;6.872;2022-11-15T15:56:43;3.07;;;1.30;;
37529;SDS011;23374;52.758;6.872;2022-11-15T15:59:03;2.57;;;1.57;;
37529;SDS011;23374;52.758;6.872;2022-11-15T16:01:24;2.07;;;1.23;;